Bookmark and Share
Track history (hours):
 

Cape Express

Last reported at 2014-Apr-16 08:25 UTC. Time now 2014-Apr-19 05:14 UTC.
Position N 26°02' W 079°23'.

Length 29 m; draft 2.2 m.

Type: Cargo ship. MMSI: 370269000.

NotesDate/timePositionNaut miles runAvg speedWind from/ knotsBaromVisibWave heightAir tempDewpointWater temp
2014-Apr-16 08:25N 26°02' W 079°23'8 9.2
2014-Apr-16 07:33N 26°03' W 079°32'9 9.0
2014-Apr-16 06:33N 26°03' W 079°41'9 8.9
2014-Apr-16 05:33N 26°04' W 079°51'9 9.2
2014-Apr-16 04:33N 26°05' W 080°01'6 6.0
2014-Apr-16 03:33N 26°04' W 080°08'0 0.1
2014-Apr-16 02:33N 26°04' W 080°08'0 0.0
2014-Apr-16 01:33N 26°04' W 080°08'0 0.0
2014-Apr-16 00:33N 26°04' W 080°08'0 0.0
2014-Apr-15 23:33N 26°04' W 080°08'4 4.2
2014-Apr-15 22:33N 26°06' W 080°04'9 9.0
2014-Apr-15 21:33N 26°05' W 079°54'8 7.7
2014-Apr-15 20:33N 26°05' W 079°45'8 8.0
2014-Apr-15 19:33N 26°05' W 079°36'15 1.2
2014-Apr-15 06:30N 26°18' W 079°27'1010.7
2014-Apr-15 05:33N 26°14' W 079°37'2110.5
2014-Apr-15 03:33N 26°07' W 079°59'7 7.2
2014-Apr-15 02:33N 26°05' W 080°07'2 2.0
2014-Apr-15 01:34N 26°04' W 080°08'0 0.0
2014-Apr-15 00:34N 26°04' W 080°08'0 0.0
2014-Apr-14 23:34N 26°04' W 080°08'0 0.0
2014-Apr-14 22:34N 26°04' W 080°08'0 0.0
2014-Apr-14 21:34N 26°04' W 080°08'3 2.8
2014-Apr-14 20:34N 26°06' W 080°06'7 6.6
2014-Apr-14 19:34N 26°07' W 079°58'9 8.7
2014-Apr-14 18:34N 26°06' W 079°49'8 8.4
2014-Apr-14 17:34N 26°06' W 079°39'9 8.5
2014-Apr-14 16:31N 26°06' W 079°29'21 0.5
2014-Apr-12 23:32N 26°24' W 079°42'9 9.3
2014-Apr-12 22:33N 26°18' W 079°50'9 9.2
2014-Apr-12 21:33N 26°12' W 079°57'9 9.1
2014-Apr-12 20:33N 26°06' W 080°05'3 3.3
2014-Apr-12 19:33N 26°04' W 080°08'0 0.0
2014-Apr-12 18:33N 26°04' W 080°08'0 0.0
2014-Apr-12 17:33N 26°04' W 080°08'0 0.0
2014-Apr-12 16:33N 26°04' W 080°08'0 0.0
2014-Apr-12 15:33N 26°04' W 080°08'0 0.0
2014-Apr-12 14:33N 26°04' W 080°08'0 0.0
2014-Apr-12 13:33N 26°04' W 080°08'0 0.1
2014-Apr-12 12:33N 26°04' W 080°08'3 2.9
2014-Apr-12 11:33N 26°05' W 080°05'1010.5
2014-Apr-12 10:33N 26°01' W 079°55'1111.0
2014-Apr-12 09:33N 25°55' W 079°44'12 1.2
2014-Apr-11 23:26N 25°50' W 079°32'6 7.1
2014-Apr-11 22:33N 25°53' W 079°39'6 6.4
2014-Apr-11 21:33N 25°56' W 079°45'6 6.1
2014-Apr-11 20:33N 25°59' W 079°51'6 6.3
2014-Apr-11 19:33N 26°02' W 079°57'8 7.6
2014-Apr-11 18:33N 26°05' W 080°05'3 3.1
2014-Apr-11 17:33N 26°04' W 080°08'0 0.0
2014-Apr-11 16:33N 26°04' W 080°08'0 0.0
2014-Apr-11 15:33N 26°04' W 080°08'0 0.0
2014-Apr-11 14:33N 26°04' W 080°08'0 0.0
2014-Apr-11 13:33N 26°04' W 080°08'0 0.0
2014-Apr-11 12:33N 26°04' W 080°08'0 0.0
2014-Apr-11 11:33N 26°04' W 080°08'4 4.3
2014-Apr-11 10:33N 26°05' W 080°03'7 7.3
2014-Apr-11 09:33N 26°03' W 079°55'7 7.5
2014-Apr-11 08:33N 26°01' W 079°47'7 7.3
2014-Apr-11 07:33N 25°59' W 079°39'  
2014-Apr-08 04:31N 25°40' W 078°33'8 8.4
2014-Apr-08 03:32N 25°44' W 078°41'9 8.8
2014-Apr-08 02:33N 25°46' W 078°50'9 8.9
2014-Apr-08 01:31N 25°49' W 079°00'8 8.7
2014-Apr-08 00:33N 25°51' W 079°09'9 9.3
2014-Apr-07 23:33N 25°54' W 079°19'11 8.5
2014-Apr-07 22:13N 25°57' W 079°31'5 8.0
2014-Apr-07 21:33N 25°58' W 079°37'7 7.4
2014-Apr-07 20:33N 26°00' W 079°45'7 7.3
2014-Apr-07 19:33N 26°02' W 079°53'13 6.4
2014-Apr-07 17:33N 26°04' W 080°07'1 1.0
2014-Apr-07 16:33N 26°04' W 080°08'0 0.0
2014-Apr-07 15:33N 26°04' W 080°08'0 0.0
2014-Apr-07 14:33N 26°04' W 080°08'0 0.0
2014-Apr-07 13:33N 26°04' W 080°08'0 0.0
2014-Apr-07 12:33N 26°04' W 080°08'0 0.0
2014-Apr-07 11:33N 26°04' W 080°08'0 0.0
2014-Apr-07 10:33N 26°04' W 080°08'0 0.0
2014-Apr-07 09:33N 26°04' W 080°08'0 0.0
2014-Apr-07 08:33N 26°04' W 080°08'0 0.0
2014-Apr-07 07:33N 26°04' W 080°08'0 0.0
2014-Apr-07 06:33N 26°04' W 080°08'0 0.0
2014-Apr-07 05:33N 26°04' W 080°08'0 0.0
2014-Apr-07 04:33N 26°04' W 080°08'0 0.0
2014-Apr-07 03:33N 26°04' W 080°08'5 4.5
2014-Apr-07 02:33N 26°05' W 080°03'1010.5
2014-Apr-07 01:33N 26°02' W 079°52'1010.4
2014-Apr-07 00:33N 25°58' W 079°41'1010.2
2014-Apr-06 23:32N 25°54' W 079°30'  

Dump ship's entire track history

sailing weather and tide predictions

Cape Express — HO5337 — position and weather